Southern Seward Peninsula Fax Sheet

SIGMETs

Area Forecast for Southern Seward Peninsula
SRN SEWARD PEN AND ERN NORTON SOUND FJ...VALID UNTIL 251600
...CLOUDS/WX...
***AIRMET MT OBSC***MTS OCNL OBSC BY CLDS. NC...
SCT015 BKN025 TOP 040 DCRG LYRS TO 170. OCNL BKN015 ISOL -RA.
OTLK VALID 251600-252200...VFR.
...TURB...
NIL SIG.
...ICE AND FZLVL...
NIL SIG. FZLVL 060.

TAFs
PAOM 250537Z 2506/2606 17007KT P6SM OVC020
     FM260000 15010KT P6SM BKN050=
PAUN 250537Z 2506/2606 29005KT P6SM OVC016
     FM251000 07005KT P6SM SCT010 BKN025
     FM252000 27005KT P6SM SCT010 BKN250
     FM260000 02010KT P6SM BKN250=

Observations
PAOM  AA 25 0953Z OVC028                    10          46  43 07004     008  89%  44    
PADE  AA 25 0953Z OVC070                    10          51  41 00000     004  68%  51    
PAKV  AA 25 0953Z CLR                        7          45  41 00000     011  86%  45    
PASH  AA 25 0956Z OVC075                    10          46  37 20012     008  71%  40    
PASM  AA 25 0956Z SCT030 OVC039             10          49  44 21006     011  83%  46    
PAUN  AA 25 0956Z BKN021                    10          45  44 08003     012  96%  45    
PABL  AA 25 0956Z BKN046 BKN060 OVC080      10          52  39 22010     007  61%  48    
PAEM  AA 25 0956Z OVC032                    10          50  45 14003     008  83%  50    
PAKK  AA 25 0956Z OVC026                    10          46  27 28004     009  47%  44    
PAMK  AA 25 0956Z BKN036                    10          49  45 00000     011  86%  49    
PANV  AA 25 0956Z CLR                       10          54  41 25004     008  61%  53    
PACZ  AA 25 0955Z CLR                       10          46  39 19009     004  76%  41    
PATC  AA 25 0955Z BKN002                     6          41  41 20021     003 100%  31    

Pilot Reports